Paramount Hamilton — 2CWB2 — position and weather

sailwx.info

Track history (hours):
 
Tides and Currents Weather Stations Pressure Air Temp Water Temp Dewpoint Dewpoint Depression Visibility Wind Speed Wind Dir Waves Ship Positions

Paramount Hamilton

Last reported at 2016-Aug-26 22:16 UTC. Time now 2016-Aug-29 23:29 UTC.
Position N 29°10' W 094°43'.

Length 249 m; draft 9 m.

Type: Tanker. MMSI: 235076274.

Date/timePositionNaut miles runAvg speedWind from/ knotsBaromVisibWave heightAir tempDewpointWater temp
2016-Aug-26 22:16N 29°10' W 094°43'47 1.2
2016-Aug-25 08:13N 28°42' W 094°00'913.2
2016-Aug-25 07:33N 28°46' W 093°52'1312.6
2016-Aug-25 06:33N 28°52' W 093°39'2110.7
2016-Aug-25 04:33N 29°03' W 093°18'1211.6
2016-Aug-25 03:33N 29°14' W 093°14'1312.9
2016-Aug-25 02:34N 29°27' W 093°13'1111.0
2016-Aug-25 01:32N 29°37' W 093°19'1010.6
2016-Aug-25 00:33N 29°47' W 093°21'8 8.2
2016-Aug-24 23:33N 29°55' W 093°20'8 7.8
2016-Aug-24 22:33N 30°03' W 093°20'6 6.4
2016-Aug-24 21:33N 30°09' W 093°20'2 1.7
2016-Aug-24 20:32N 30°11' W 093°18'0 0.0
2016-Aug-24 19:32N 30°11' W 093°18'0 0.0
2016-Aug-24 18:32N 30°11' W 093°18'0 0.0
2016-Aug-24 17:32N 30°11' W 093°18'0 0.0
2016-Aug-24 15:29N 30°11' W 093°18'0 0.0
2016-Aug-24 14:26N 30°11' W 093°18'0 0.0
2016-Aug-24 13:29N 30°11' W 093°18'0 0.0
2016-Aug-24 11:32N 30°11' W 093°18'0 0.0
2016-Aug-24 10:32N 30°11' W 093°18'0 0.0
2016-Aug-24 09:32N 30°11' W 093°18'0 0.0
2016-Aug-24 08:17N 30°11' W 093°18'0 0.1
2016-Aug-24 07:28N 30°11' W 093°19'2 0.5
2016-Aug-24 03:25N 30°09' W 093°20'0 0.0
2016-Aug-24 01:25N 30°09' W 093°20'0 0.0
2016-Aug-24 00:25N 30°09' W 093°20'0 0.0
2016-Aug-23 23:33N 30°09' W 093°20'0 0.0
2016-Aug-23 22:31N 30°09' W 093°20'0 0.0
2016-Aug-23 21:31N 30°09' W 093°20'0 0.0
2016-Aug-23 20:25N 30°09' W 093°20'0 0.0
2016-Aug-23 19:28N 30°09' W 093°20'0 0.0
2016-Aug-23 18:31N 30°09' W 093°20'0 0.0
2016-Aug-23 17:28N 30°09' W 093°20'0 0.0
2016-Aug-23 14:16N 30°09' W 093°20'0 0.0
2016-Aug-23 13:31N 30°09' W 093°20'0 0.0
2016-Aug-23 12:34N 30°09' W 093°20'0 0.0
2016-Aug-23 11:34N 30°09' W 093°20'0 0.0
2016-Aug-23 10:33N 30°09' W 093°20'0 0.0
2016-Aug-23 09:34N 30°09' W 093°20'0 0.0
2016-Aug-23 08:34N 30°09' W 093°20'0 0.0
2016-Aug-23 07:34N 30°09' W 093°20'0 0.0
2016-Aug-23 06:34N 30°09' W 093°20'0 0.0
2016-Aug-23 05:34N 30°09' W 093°20'0 0.0
2016-Aug-23 04:31N 30°09' W 093°20'3 2.8
2016-Aug-23 03:33N 30°07' W 093°20'5 5.3
2016-Aug-23 02:34N 30°01' W 093°20'6 6.0
2016-Aug-23 01:33N 29°56' W 093°20'7 7.4
2016-Aug-23 00:33N 29°48' W 093°21'9 8.7
2016-Aug-22 23:33N 29°39' W 093°20'1110.7
2016-Aug-22 22:33N 29°30' W 093°13'13 5.8
2016-Aug-22 20:18N 29°18' W 093°09'0 0.0
2016-Aug-22 16:12N 29°18' W 093°09'0 0.0
2016-Aug-22 12:24N 29°18' W 093°09'0 0.0
2016-Aug-22 11:27N 29°18' W 093°09'0 0.0
2016-Aug-22 09:33N 29°18' W 093°09'0 0.0
2016-Aug-22 07:21N 29°18' W 093°09'0 0.0
2016-Aug-22 05:30N 29°18' W 093°09'0 0.0
2016-Aug-22 04:12N 29°18' W 093°09'0 0.1
2016-Aug-22 03:24N 29°18' W 093°09'0 0.0
2016-Aug-21 10:18N 29°18' W 093°09'0 0.0
2016-Aug-20 12:33N 29°18' W 093°09'0 0.0
2016-Aug-20 11:18N 29°18' W 093°09'0 0.0
2016-Aug-20 09:30N 29°18' W 093°09'0 0.0
2016-Aug-20 08:33N 29°18' W 093°09'0 0.0
2016-Aug-20 04:06N 29°18' W 093°09'0 0.0
2016-Aug-19 19:03N 29°18' W 093°09'0 0.0
2016-Aug-18 06:30N 29°18' W 093°09'3 2.8
2016-Aug-18 05:34N 29°20' W 093°08'2 1.0
2016-Aug-18 04:07N 29°21' W 093°07'3 3.6
2016-Aug-18 03:18N 29°20' W 093°10'4 5.3
2016-Aug-18 02:29N 29°16' W 093°11'  
Track history (hours):
 
Tides and Currents Weather Stations Pressure Air Temp Water Temp Dewpoint Dewpoint Depression Visibility Wind Speed Wind Dir Waves Ship Positions

Paramount Hamilton

Last reported at 2016-Aug-26 22:16 UTC. Time now 2016-Aug-29 23:29 UTC.
Position N 29°10' W 094°43'.

Length 249 m; draft 9 m.

Type: Tanker. MMSI: 235076274.

Date/timePositionNaut miles runAvg speedWind from/ knotsBaromVisibWave heightAir tempDewpointWater temp
2016-Aug-26 22:16N 29°10' W 094°43'47 1.2
2016-Aug-25 08:13N 28°42' W 094°00'913.2
2016-Aug-25 07:33N 28°46' W 093°52'1312.6
2016-Aug-25 06:33N 28°52' W 093°39'2110.7
2016-Aug-25 04:33N 29°03' W 093°18'1211.6
2016-Aug-25 03:33N 29°14' W 093°14'1312.9
2016-Aug-25 02:34N 29°27' W 093°13'1111.0
2016-Aug-25 01:32N 29°37' W 093°19'1010.6
2016-Aug-25 00:33N 29°47' W 093°21'8 8.2
2016-Aug-24 23:33N 29°55' W 093°20'8 7.8
2016-Aug-24 22:33N 30°03' W 093°20'6 6.4
2016-Aug-24 21:33N 30°09' W 093°20'2 1.7
2016-Aug-24 20:32N 30°11' W 093°18'0 0.0
2016-Aug-24 19:32N 30°11' W 093°18'0 0.0
2016-Aug-24 18:32N 30°11' W 093°18'0 0.0
2016-Aug-24 17:32N 30°11' W 093°18'0 0.0
2016-Aug-24 15:29N 30°11' W 093°18'0 0.0
2016-Aug-24 14:26N 30°11' W 093°18'0 0.0
2016-Aug-24 13:29N 30°11' W 093°18'0 0.0
2016-Aug-24 11:32N 30°11' W 093°18'0 0.0
2016-Aug-24 10:32N 30°11' W 093°18'0 0.0
2016-Aug-24 09:32N 30°11' W 093°18'0 0.0
2016-Aug-24 08:17N 30°11' W 093°18'0 0.1
2016-Aug-24 07:28N 30°11' W 093°19'2 0.5
2016-Aug-24 03:25N 30°09' W 093°20'0 0.0
2016-Aug-24 01:25N 30°09' W 093°20'0 0.0
2016-Aug-24 00:25N 30°09' W 093°20'0 0.0
2016-Aug-23 23:33N 30°09' W 093°20'0 0.0
2016-Aug-23 22:31N 30°09' W 093°20'0 0.0
2016-Aug-23 21:31N 30°09' W 093°20'0 0.0
2016-Aug-23 20:25N 30°09' W 093°20'0 0.0
2016-Aug-23 19:28N 30°09' W 093°20'0 0.0
2016-Aug-23 18:31N 30°09' W 093°20'0 0.0
2016-Aug-23 17:28N 30°09' W 093°20'0 0.0
2016-Aug-23 14:16N 30°09' W 093°20'0 0.0
2016-Aug-23 13:31N 30°09' W 093°20'0 0.0
2016-Aug-23 12:34N 30°09' W 093°20'0 0.0
2016-Aug-23 11:34N 30°09' W 093°20'0 0.0
2016-Aug-23 10:33N 30°09' W 093°20'0 0.0
2016-Aug-23 09:34N 30°09' W 093°20'0 0.0
2016-Aug-23 08:34N 30°09' W 093°20'0 0.0
2016-Aug-23 07:34N 30°09' W 093°20'0 0.0
2016-Aug-23 06:34N 30°09' W 093°20'0 0.0
2016-Aug-23 05:34N 30°09' W 093°20'0 0.0
2016-Aug-23 04:31N 30°09' W 093°20'3 2.8
2016-Aug-23 03:33N 30°07' W 093°20'5 5.3
2016-Aug-23 02:34N 30°01' W 093°20'6 6.0
2016-Aug-23 01:33N 29°56' W 093°20'7 7.4
2016-Aug-23 00:33N 29°48' W 093°21'9 8.7
2016-Aug-22 23:33N 29°39' W 093°20'1110.7
2016-Aug-22 22:33N 29°30' W 093°13'13 5.8
2016-Aug-22 20:18N 29°18' W 093°09'0 0.0
2016-Aug-22 16:12N 29°18' W 093°09'0 0.0
2016-Aug-22 12:24N 29°18' W 093°09'0 0.0
2016-Aug-22 11:27N 29°18' W 093°09'0 0.0
2016-Aug-22 09:33N 29°18' W 093°09'0 0.0
2016-Aug-22 07:21N 29°18' W 093°09'0 0.0
2016-Aug-22 05:30N 29°18' W 093°09'0 0.0
2016-Aug-22 04:12N 29°18' W 093°09'0 0.1
2016-Aug-22 03:24N 29°18' W 093°09'0 0.0
2016-Aug-21 10:18N 29°18' W 093°09'0 0.0
2016-Aug-20 12:33N 29°18' W 093°09'0 0.0
2016-Aug-20 11:18N 29°18' W 093°09'0 0.0
2016-Aug-20 09:30N 29°18' W 093°09'0 0.0
2016-Aug-20 08:33N 29°18' W 093°09'0 0.0
2016-Aug-20 04:06N 29°18' W 093°09'0 0.0
2016-Aug-19 19:03N 29°18' W 093°09'0 0.0
2016-Aug-18 06:30N 29°18' W 093°09'3 2.8
2016-Aug-18 05:34N 29°20' W 093°08'2 1.0
2016-Aug-18 04:07N 29°21' W 093°07'3 3.6
2016-Aug-18 03:18N 29°20' W 093°10'4 5.3
2016-Aug-18 02:29N 29°16' W 093°11'  

Dump ship's entire track history